»·PEaware :: HAWG11 KLSV-KIFP

HAWG11 :: KLSV-KIFP

FLIGHT INFORMATION

Flight Status: Arrived
Operator: Unknown
More flights by this operator :: More flights under this callsign
Pilot: Logan D. (20254)
Aircraft: FAIRCHILD A-10 THUNDERBOLT 2
(A10)
More flights by this aircraft type
Origin: KLSV Nellis AFB
United States
Destination: KIFP Laughlin/Bullhead Intl
United States
More flights between these airports :: More routes between these airports
Route:
File this flight plan on PilotEdge
Remarks: +CW / FF + A10 TAC W / REMAIN W OF LAS BRAVO DIRECT
Altitude:
(Current/Filed)
5,500ft
Speed:
(Current/Filed)
250kts
Departed: 15-Apr-20 07:36 AM
Arrived: 15-Apr-20 08:11 AM
Distance/Time
Traveled:
69nm/0:34
Distance/Time
To Go:
Arrived

Flight Plot

Page will automatically refresh every two minutes.

Flight plan parsing failed; only flown route is shown


Map Options




Map Legend


Flown Route
Filed Route
Departure Airport
Arrival Airport
Navaid (VOR, NDB)
Fix

Horizontal Profiles

Position Reports

Time Latitude Longitude Heading Altitude Ground
Speed
15-Apr-20 07:23 36.229635 -115.024495 87 1850ft 0kts
15-Apr-20 07:24 36.229635 -115.024495 87 1850ft 0kts
15-Apr-20 07:25 36.229635 -115.024495 87 1850ft 0kts
15-Apr-20 07:26 36.229635 -115.024495 87 1850ft 0kts
15-Apr-20 07:27 36.229635 -115.024495 87 1850ft 0kts
15-Apr-20 07:28 36.229635 -115.024495 87 1850ft 0kts
15-Apr-20 07:29 36.229635 -115.024495 87 1850ft 0kts
15-Apr-20 07:30 36.229636 -115.024486 86 1850ft 0kts
15-Apr-20 07:31 36.230543 -115.026549 303 1850ft 12kts
15-Apr-20 07:32 36.229972 -115.032478 218 1850ft 16kts
15-Apr-20 07:33 36.225541 -115.037339 219 1850ft 20kts
15-Apr-20 07:34 36.222925 -115.041295 311 1848ft 11kts
15-Apr-20 07:35 36.224346 -115.043236 322 1848ft 3kts
15-Apr-20 07:36 36.234111 -115.034192 40 1856ft 162kts
15-Apr-20 07:37 36.284866 -114.992999 345 3174ft 222kts
15-Apr-20 07:38 36.316171 -115.047844 287 3809ft 207kts
15-Apr-20 07:39 36.333837 -115.121145 287 4581ft 228kts
15-Apr-20 07:39 36.342236 -115.188232 271 5188ft 240kts
15-Apr-20 07:41 36.318244 -115.276943 221 5734ft 245kts
15-Apr-20 07:42 36.281196 -115.335397 192 6151ft 241kts
15-Apr-20 07:42 36.224128 -115.348044 207 5652ft 270kts
15-Apr-20 07:44 36.160590 -115.410290 206 5677ft 239kts
15-Apr-20 07:44 36.107366 -115.430311 176 5660ft 248kts
15-Apr-20 07:45 36.039072 -115.436208 186 5834ft 252kts
15-Apr-20 07:46 35.959153 -115.441583 175 5671ft 331kts
15-Apr-20 07:47 35.868632 -115.420062 163 5575ft 326kts
15-Apr-20 07:48 35.785862 -115.381775 158 6636ft 315kts
15-Apr-20 07:49 35.716765 -115.317337 112 7304ft 328kts
15-Apr-20 07:50 35.679375 -115.212837 112 7596ft 342kts
15-Apr-20 07:51 35.641248 -115.105444 112 7596ft 346kts
15-Apr-20 07:52 35.602787 -114.997568 112 7584ft 311kts
15-Apr-20 07:53 35.566423 -114.896217 112 7597ft 334kts
15-Apr-20 07:54 35.528646 -114.790997 112 7596ft 336kts
15-Apr-20 07:55 35.479621 -114.694480 138 7677ft 335kts
15-Apr-20 07:56 35.402484 -114.629673 150 7665ft 318kts
15-Apr-20 07:57 35.331382 -114.603900 165 5921ft 240kts
15-Apr-20 07:58 35.314482 -114.559009 6 5509ft 238kts
15-Apr-20 07:59 35.381512 -114.586522 335 6010ft 257kts
15-Apr-20 08:00 35.384710 -114.643022 163 5882ft 281kts
15-Apr-20 08:01 35.380871 -114.591543 13 7265ft 262kts
15-Apr-20 08:02 35.419412 -114.643376 222 7107ft 225kts
15-Apr-20 08:03 35.356868 -114.623219 152 5379ft 277kts
15-Apr-20 08:04 35.291879 -114.596160 153 4543ft 213kts
15-Apr-20 08:05 35.319221 -114.555176 337 4391ft 252kts
15-Apr-20 08:06 35.297688 -114.581914 167 3571ft 246kts
15-Apr-20 08:07 35.244151 -114.567134 173 2425ft 169kts
15-Apr-20 08:08 35.198507 -114.562610 178 1577ft 162kts
15-Apr-20 08:09 35.158082 -114.559619 175 664ft 115kts
15-Apr-20 08:10 35.147295 -114.557762 82 675ft 0kts
15-Apr-20 08:11 35.147295 -114.557762 82 675ft 0kts
15-Apr-20 08:12 35.155334 -114.558044 353 663ft 25kts

Navigation Log

Ident Type
Flight plan parsing failed, navigation log unavailable